Time;durP1;ratioP1;P1;durP2;ratioP2;P2;SDS_P1;SDS_P2;PMS_P1;PMS_P2;Temp;Humidity;BMP_temperature;BMP_pressure;BME280_temperature;BME280_humidity;BME280_pressure;Samples;Min_cycle;Max_cycle;Signal;HPM_P1;HPM_P2
2021/01/28 00:01:21;;;;;;;20.30;8.63;;;;;;;-0.31;71.36;94289.31;5035034;28;20206;-79
2021/01/28 00:03:48;;;;;;;18.55;10.65;;;;;;;-0.25;71.75;94292.50;5057287;28;20207;-79
2021/01/28 00:06:14;;;;;;;22.75;9.95;;;;;;;-0.28;70.51;94290.91;5057593;28;20201;-78
2021/01/28 00:08:42;;;;;;;14.55;9.07;;;;;;;-0.29;71.13;94289.22;5057030;28;20187;-78
2021/01/28 00:11:08;;;;;;;10.98;8.15;;;;;;;-0.37;71.08;94299.09;5057538;28;20206;-78
2021/01/28 00:13:35;;;;;;;12.05;8.55;;;;;;;-0.39;70.62;94288.88;5005825;28;20225;-78
2021/01/28 00:16:02;;;;;;;12.95;7.63;;;;;;;-0.47;71.34;94291.03;5056862;28;20344;-77
2021/01/28 00:18:28;;;;;;;9.10;8.10;;;;;;;-0.40;71.09;94294.13;5057295;28;20206;-78
2021/01/28 00:20:55;;;;;;;10.48;8.25;;;;;;;-0.41;71.17;94297.59;5057316;28;20206;-79
2021/01/28 00:23:21;;;;;;;7.82;7.05;;;;;;;-0.44;70.95;94298.59;5057523;28;20210;-78
2021/01/28 00:25:48;;;;;;;10.70;6.65;;;;;;;-0.40;71.79;94294.94;5057342;28;20225;-78
2021/01/28 00:28:18;;;;;;;9.52;6.80;;;;;;;-0.42;71.69;94295.94;5057358;28;20206;-78
2021/01/28 00:30:47;;;;;;;8.98;6.35;;;;;;;-0.39;72.26;94301.75;5056923;28;20206;-78
2021/01/28 00:33:17;;;;;;;9.13;6.07;;;;;;;-0.43;70.93;94296.84;5056337;28;20807;-78
2021/01/28 00:35:45;;;;;;;10.00;6.72;;;;;;;-0.47;70.74;94300.50;5058123;28;20284;-78
2021/01/28 00:38:15;;;;;;;9.27;6.70;;;;;;;-0.46;71.93;94289.28;5057001;28;20667;-79
2021/01/28 00:40:41;;;;;;;10.95;7.43;;;;;;;-0.37;71.53;94301.69;5057561;28;20215;-78
2021/01/28 00:43:08;;;;;;;13.00;7.43;;;;;;;-0.49;71.24;94290.28;5005051;28;20252;-78
2021/01/28 00:45:34;;;;;;;8.05;7.22;;;;;;;-0.50;71.84;94295.50;5057662;28;20204;-78
2021/01/28 00:48:01;;;;;;;11.65;7.18;;;;;;;-0.41;71.76;94295.84;5056691;28;20213;-78
2021/01/28 00:50:31;;;;;;;10.40;6.47;;;;;;;-0.45;70.76;94294.34;5057066;28;20585;-78
2021/01/28 00:52:58;;;;;;;9.85;6.68;;;;;;;-0.53;70.94;94293.09;5057157;28;20568;-78
2021/01/28 00:55:25;;;;;;;12.88;7.90;;;;;;;-0.53;70.93;94300.81;5056871;28;20301;-77
2021/01/28 00:57:51;;;;;;;11.45;7.10;;;;;;;-0.65;71.03;94297.94;5056040;28;20643;-78
2021/01/28 01:00:22;;;;;;;11.85;7.72;;;;;;;-0.62;71.86;94292.63;5056489;28;20206;-78
2021/01/28 01:02:49;;;;;;;15.15;8.95;;;;;;;-0.67;72.23;94291.22;5056102;28;20194;-78
2021/01/28 01:05:18;;;;;;;14.60;7.82;;;;;;;-0.62;71.87;94291.81;5057281;28;20190;-78
2021/01/28 01:07:46;;;;;;;10.30;7.25;;;;;;;-0.63;71.19;94290.97;5021774;28;20194;-78
2021/01/28 01:10:22;;;;;;;7.97;6.88;;;;;;;-0.65;71.10;94297.13;5055946;28;20592;-78
2021/01/28 01:12:48;;;;;;;11.52;7.53;;;;;;;-0.60;71.55;94289.16;5056181;28;20222;-78
2021/01/28 01:15:15;;;;;;;16.25;7.47;;;;;;;-0.63;71.29;94288.41;5055993;28;20210;-78
2021/01/28 01:17:42;;;;;;;10.30;6.78;;;;;;;-0.62;71.08;94289.22;5037539;28;20237;-78
2021/01/28 01:20:09;;;;;;;11.88;7.60;;;;;;;-0.65;70.85;94285.06;5055523;28;20662;-78
2021/01/28 01:22:36;;;;;;;15.52;7.38;;;;;;;-0.58;71.51;94285.56;5056074;28;20209;-78
2021/01/28 01:25:04;;;;;;;15.32;7.30;;;;;;;-0.58;71.59;94284.75;5056686;28;20187;-78
2021/01/28 01:27:30;;;;;;;12.95;8.10;;;;;;;-0.54;71.35;94288.84;5021180;28;20712;-78
2021/01/28 01:29:56;;;;;;;14.85;7.18;;;;;;;-0.43;71.78;94287.38;5055769;28;20202;-78
2021/01/28 01:32:23;;;;;;;10.82;6.70;;;;;;;-0.40;71.06;94283.81;5004402;28;20218;-78
2021/01/28 01:34:49;;;;;;;11.10;7.25;;;;;;;-0.44;72.00;94282.31;5055649;28;20202;-78
2021/01/28 01:37:15;;;;;;;9.77;7.05;;;;;;;-0.44;71.61;94279.72;5056105;28;20209;-78
2021/01/28 01:39:42;;;;;;;14.50;7.30;;;;;;;-0.47;71.36;94277.31;5055087;28;20712;-78
2021/01/28 01:42:09;;;;;;;9.52;7.38;;;;;;;-0.41;72.00;94277.81;5055680;28;20199;-78
2021/01/28 01:44:35;;;;;;;21.05;8.15;;;;;;;-0.39;71.79;94275.16;5055401;28;20708;-78
2021/01/28 01:47:17;;;;;;;17.70;8.65;;;;;;;-0.35;71.61;94279.25;5055885;28;20210;-78
2021/01/28 01:49:45;;;;;;;15.55;7.97;;;;;;;-0.37;72.50;94278.50;5054749;28;20439;-78
2021/01/28 01:52:13;;;;;;;10.38;7.88;;;;;;;-0.32;71.59;94273.91;5055931;28;20230;-78
2021/01/28 01:54:43;;;;;;;12.05;7.97;;;;;;;-0.40;72.23;94276.06;5055394;28;20203;-78
2021/01/28 01:57:19;;;;;;;14.98;8.30;;;;;;;-0.34;72.39;94271.41;5056029;28;20203;-78
2021/01/28 01:59:51;;;;;;;9.20;7.03;;;;;;;-0.42;72.27;94283.88;5003832;28;20199;-78
2021/01/28 02:02:20;;;;;;;10.57;7.40;;;;;;;-0.40;72.57;94284.63;5055199;28;20221;-78
2021/01/28 02:04:51;;;;;;;11.80;7.50;;;;;;;-0.31;72.21;94291.03;5055138;28;20209;-78
2021/01/28 02:07:21;;;;;;;9.25;7.45;;;;;;;-0.34;72.24;94292.03;5054882;28;20195;-77
2021/01/28 02:09:47;;;;;;;8.00;6.35;;;;;;;-0.34;72.60;94299.78;5055272;28;20237;-78
2021/01/28 02:12:15;;;;;;;9.70;7.10;;;;;;;-0.33;72.63;94295.44;5055043;28;20674;-77
2021/01/28 02:14:41;;;;;;;14.93;8.77;;;;;;;-0.29;72.84;94293.53;5054998;28;20251;-77
2021/01/28 02:17:11;;;;;;;10.77;6.70;;;;;;;-0.23;72.61;94298.41;5054679;28;20549;-77
2021/01/28 02:19:54;;;;;;;8.20;6.15;;;;;;;-0.30;72.74;94303.03;5055242;28;20214;-77
2021/01/28 02:22:32;;;;;;;11.07;7.40;;;;;;;-0.31;72.92;94294.44;5055309;28;20190;-77
2021/01/28 02:25:03;;;;;;;11.43;7.03;;;;;;;-0.25;72.91;94307.97;5055050;28;20186;-78
2021/01/28 02:27:32;;;;;;;9.23;6.50;;;;;;;-0.25;73.10;94301.06;5055070;28;20195;-78
2021/01/28 02:29:58;;;;;;;8.35;6.82;;;;;;;-0.25;73.65;94303.63;5054838;28;20226;-78
2021/01/28 02:32:24;;;;;;;10.35;7.78;;;;;;;-0.23;72.61;94299.22;5054607;28;20674;-78
2021/01/28 02:34:51;;;;;;;11.40;6.88;;;;;;;-0.27;72.75;94308.03;5055061;28;20287;-78
2021/01/28 02:37:20;;;;;;;12.20;7.00;;;;;;;-0.25;73.12;94306.22;5054767;28;20205;-78
2021/01/28 02:39:47;;;;;;;11.13;8.02;;;;;;;-0.27;73.35;94310.63;5054234;28;20265;-78
2021/01/28 02:42:20;;;;;;;12.57;7.28;;;;;;;-0.22;72.83;94311.22;5054260;28;20211;-78
2021/01/28 02:44:47;;;;;;;8.93;6.78;;;;;;;-0.22;72.32;94316.38;5054244;28;20655;-78
2021/01/28 02:47:15;;;;;;;12.60;8.30;;;;;;;-0.20;71.80;94317.13;5054430;28;20202;-78
2021/01/28 02:49:41;;;;;;;13.35;7.00;;;;;;;-0.27;72.40;94315.78;5019688;28;20211;-78
2021/01/28 02:52:08;;;;;;;7.22;5.50;;;;;;;-0.28;72.02;94321.84;5054617;28;20256;-78
2021/01/28 02:54:39;;;;;;;6.82;6.10;;;;;;;-0.24;71.73;94323.34;5054513;28;20563;-78
2021/01/28 02:57:06;;;;;;;9.27;6.32;;;;;;;-0.29;71.82;94322.72;5053974;28;20183;-78
2021/01/28 02:59:32;;;;;;;8.43;6.20;;;;;;;-0.32;71.59;94315.16;5053610;28;20658;-78
2021/01/28 03:02:07;;;;;;;8.70;6.50;;;;;;;-0.42;71.02;94324.28;5053777;28;20207;-78
2021/01/28 03:04:33;;;;;;;8.80;6.45;;;;;;;-0.44;70.78;94316.63;5054396;28;20202;-78
2021/01/28 03:07:00;;;;;;;8.48;6.03;;;;;;;-0.50;70.49;94311.81;5053730;28;20207;-78
2021/01/28 03:09:26;;;;;;;10.43;7.75;;;;;;;-0.45;71.25;94309.81;5054485;28;20256;-78
2021/01/28 03:11:53;;;;;;;10.32;5.97;;;;;;;-0.51;70.37;94317.03;5054188;28;20213;-78
2021/01/28 03:14:19;;;;;;;9.30;5.97;;;;;;;-0.48;71.09;94296.25;5053982;28;20654;-78
2021/01/28 03:16:45;;;;;;;7.85;5.82;;;;;;;-0.49;70.56;94312.63;5053936;28;20226;-78
2021/01/28 03:19:13;;;;;;;8.38;6.43;;;;;;;-0.44;71.49;94314.06;5018729;28;20194;-78
2021/01/28 03:21:39;;;;;;;8.52;6.53;;;;;;;-0.50;71.27;94308.41;5053954;28;20207;-78
2021/01/28 03:24:06;;;;;;;11.68;6.45;;;;;;;-0.44;71.53;94306.31;5053466;28;20211;-78
2021/01/28 03:26:33;;;;;;;10.73;7.30;;;;;;;-0.47;71.82;94306.50;5053530;28;20207;-78
2021/01/28 03:28:59;;;;;;;11.35;7.55;;;;;;;-0.52;72.16;94305.06;5053690;28;20643;-78
2021/01/28 03:31:25;;;;;;;11.70;7.30;;;;;;;-0.44;72.61;94306.31;5053729;28;20193;-78
2021/01/28 03:33:52;;;;;;;16.13;7.70;;;;;;;-0.45;72.10;94304.66;5053381;28;20230;-78
2021/01/28 03:36:19;;;;;;;10.15;8.38;;;;;;;-0.38;72.19;94310.31;5053440;28;20210;-78
2021/01/28 03:38:45;;;;;;;12.70;7.75;;;;;;;-0.28;72.20;94306.38;5053421;28;20246;-78
2021/01/28 03:41:12;;;;;;;13.98;7.55;;;;;;;-0.28;72.84;94297.81;5054160;28;20565;-78
2021/01/28 03:43:38;;;;;;;9.82;7.32;;;;;;;-0.35;71.30;94303.25;5053521;28;20187;-78
2021/01/28 03:46:04;;;;;;;10.00;7.75;;;;;;;-0.22;70.81;94308.63;5053791;28;20210;-78
2021/01/28 03:48:31;;;;;;;11.27;8.10;;;;;;;-0.22;70.98;94300.91;5001891;28;20832;-77
2021/01/28 03:50:57;;;;;;;11.00;7.22;;;;;;;-0.29;70.69;94301.28;5053829;28;20208;-77
2021/01/28 03:53:24;;;;;;;13.48;7.72;;;;;;;-0.32;71.28;94297.13;5053505;28;20219;-77
2021/01/28 03:55:51;;;;;;;17.63;7.47;;;;;;;-0.33;71.04;94298.84;5053290;28;20198;-77
2021/01/28 03:58:17;;;;;;;13.63;9.13;;;;;;;-0.35;71.32;94298.09;5053364;28;20245;-79
2021/01/28 04:00:43;;;;;;;13.90;8.75;;;;;;;-0.33;71.00;94287.72;5053618;28;20195;-77
2021/01/28 04:03:10;;;;;;;15.98;11.43;;;;;;;-0.30;71.24;94290.13;5053254;28;20206;-77
2021/01/28 04:05:36;;;;;;;10.27;8.52;;;;;;;-0.25;70.98;94289.91;5053446;28;20293;-77
2021/01/28 04:08:03;;;;;;;10.25;8.10;;;;;;;-0.22;70.77;94290.59;5053144;28;20245;-77
2021/01/28 04:10:32;;;;;;;10.13;8.02;;;;;;;-0.32;71.12;94292.78;5053233;28;20297;-77
2021/01/28 04:13:00;;;;;;;10.77;7.90;;;;;;;-0.44;71.92;94285.72;5053342;28;20260;-77
2021/01/28 04:15:26;;;;;;;10.00;7.10;;;;;;;-0.48;72.61;94285.94;5053612;28;20209;-77
2021/01/28 04:17:53;;;;;;;10.90;8.40;;;;;;;-0.63;72.45;94292.72;5053113;28;20228;-76
2021/01/28 04:20:21;;;;;;;10.10;7.60;;;;;;;-0.79;73.74;94290.09;5053551;28;20241;-76
2021/01/28 04:22:48;;;;;;;10.43;7.57;;;;;;;-0.77;73.92;94292.59;5001648;28;20209;-77
2021/01/28 04:25:15;;;;;;;12.40;8.32;;;;;;;-0.84;74.63;94302.38;5053248;28;20256;-77
2021/01/28 04:27:43;;;;;;;16.00;8.20;;;;;;;-0.87;74.97;94299.09;5053078;28;20293;-77
2021/01/28 04:30:12;;;;;;;13.32;8.23;;;;;;;-0.86;74.96;94301.63;5052749;28;20187;-77
2021/01/28 04:32:38;;;;;;;12.68;8.40;;;;;;;-0.91;75.59;94303.56;5053065;28;20231;-77
2021/01/28 04:35:06;;;;;;;12.30;8.45;;;;;;;-0.90;76.09;94301.84;5053182;28;20197;-78
2021/01/28 04:37:33;;;;;;;16.27;9.65;;;;;;;-0.91;76.05;94295.00;5053130;28;20203;-77
2021/01/28 04:39:59;;;;;;;15.93;9.02;;;;;;;-0.79;74.96;94302.97;5052631;28;20737;-77
2021/01/28 04:42:38;;;;;;;12.07;9.57;;;;;;;-0.69;74.87;94309.31;5034704;28;20599;-77
2021/01/28 04:45:07;;;;;;;14.85;10.02;;;;;;;-0.58;75.30;94313.09;5019595;28;20580;-77
2021/01/28 04:47:36;;;;;;;17.13;10.80;;;;;;;-0.53;73.89;94305.97;5052743;28;20685;-77
2021/01/28 04:50:04;;;;;;;15.43;9.98;;;;;;;-0.50;74.15;94305.81;5021200;28;20662;-79
2021/01/28 04:52:38;;;;;;;12.50;8.65;;;;;;;-0.62;74.26;94309.84;5056624;28;20215;-79
2021/01/28 04:55:07;;;;;;;9.80;7.60;;;;;;;-0.57;75.30;94319.94;5056596;28;20199;-79
2021/01/28 04:57:34;;;;;;;15.68;9.13;;;;;;;-0.56;75.45;94324.19;5056666;28;20226;-79
2021/01/28 05:00:00;;;;;;;19.83;10.90;;;;;;;-0.64;75.45;94325.38;5056107;28;20191;-79
2021/01/28 05:02:29;;;;;;;13.73;9.13;;;;;;;-0.58;75.89;94333.69;5056597;28;20190;-79
2021/01/28 05:04:58;;;;;;;11.40;8.48;;;;;;;-0.62;76.37;94333.84;5057039;28;20191;-79
2021/01/28 05:07:28;;;;;;;14.35;9.32;;;;;;;-0.68;76.31;94331.59;5056534;28;20195;-79
2021/01/28 05:10:04;;;;;;;13.27;9.30;;;;;;;-0.63;76.86;94334.75;5056298;28;20684;-79
2021/01/28 05:12:30;;;;;;;9.00;7.55;;;;;;;-0.66;77.61;94342.66;5057732;28;20660;-77
2021/01/28 05:15:12;;;;;;;12.88;7.80;;;;;;;-0.64;77.34;94340.00;5038138;28;20241;-77
2021/01/28 05:17:41;;;;;;;10.15;7.60;;;;;;;-0.74;77.94;94334.47;5056262;28;20209;-77
2021/01/28 05:20:14;;;;;;;13.02;8.40;;;;;;;-0.79;78.50;94345.94;5056812;28;20202;-76
2021/01/28 05:22:44;;;;;;;15.57;8.90;;;;;;;-0.85;79.31;94351.41;5056378;28;20643;-77
2021/01/28 05:25:17;;;;;;;12.05;7.82;;;;;;;-0.81;79.41;94348.59;5022135;28;20202;-79
2021/01/28 05:27:44;;;;;;;12.90;9.18;;;;;;;-0.77;79.32;94351.84;5022769;28;20217;-78
2021/01/28 05:30:16;;;;;;;13.07;8.80;;;;;;;-0.87;78.59;94348.03;5004953;28;20199;-77
2021/01/28 05:32:46;;;;;;;11.43;9.25;;;;;;;-0.80;78.31;94354.56;5056096;28;20455;-78
2021/01/28 05:35:23;;;;;;;14.85;10.23;;;;;;;-0.73;78.69;94359.34;5055910;28;20265;-78
2021/01/28 05:37:51;;;;;;;14.98;10.85;;;;;;;-0.68;77.77;94359.94;5055592;28;20202;-78
2021/01/28 05:40:20;;;;;;;18.20;13.25;;;;;;;-0.70;78.20;94364.31;5056209;28;20221;-78
2021/01/28 05:42:48;;;;;;;14.98;10.90;;;;;;;-0.68;77.94;94364.25;5038558;28;20198;-78
2021/01/28 05:45:30;;;;;;;19.13;13.25;;;;;;;-0.62;77.80;94369.91;5056021;28;20635;-78
2021/01/28 05:48:22;;;;;;;25.00;13.52;;;;;;;-0.61;76.50;94370.75;5056493;28;20221;-77
2021/01/28 05:51:03;;;;;;;28.08;14.77;;;;;;;-0.63;76.43;94378.56;5055875;28;20210;-78
2021/01/28 05:53:30;;;;;;;11.65;8.20;;;;;;;-0.68;75.55;94383.13;5055783;28;20202;-78
2021/01/28 05:55:56;;;;;;;12.95;9.23;;;;;;;-0.58;75.40;94380.91;5055920;28;20282;-77
2021/01/28 05:58:31;;;;;;;19.20;11.85;;;;;;;-0.50;75.65;94377.97;5003947;28;20203;-78
2021/01/28 06:01:02;;;;;;;20.55;11.70;;;;;;;-0.56;75.60;94381.69;5054912;28;20206;-78
2021/01/28 06:04:04;;;;;;;21.88;12.60;;;;;;;-0.59;74.82;94386.13;5055704;28;20654;-79
2021/01/28 06:07:03;;;;;;;15.10;10.75;;;;;;;-0.61;74.92;94386.22;5054303;28;20435;-79
2021/01/28 06:09:51;;;;;;;11.80;8.75;;;;;;;-0.62;74.55;94389.69;4993395;28;20550;-77
2021/01/28 06:12:37;;;;;;;12.57;8.85;;;;;;;-0.63;74.27;94388.88;4978691;28;20212;-77
2021/01/28 06:15:19;;;;;;;8.65;6.80;;;;;;;-0.70;74.49;94387.50;4993689;28;20204;-76
2021/01/28 06:18:30;;;;;;;12.38;7.78;;;;;;;-0.75;74.79;94389.47;4993899;28;20256;-77
2021/01/28 06:21:24;;;;;;;11.50;8.73;;;;;;;-0.71;74.66;94396.16;4954700;29;20698;-88
2021/01/28 06:24:25;;;;;;;13.07;8.57;;;;;;;-0.73;74.55;94394.56;4954782;29;20269;-78
2021/01/28 06:27:03;;;;;;;29.70;12.85;;;;;;;-0.73;74.46;94400.53;4878738;29;20208;-78
2021/01/28 06:29:47;;;;;;;29.17;14.68;;;;;;;-0.74;74.94;94401.47;4879226;29;20193;-78
2021/01/28 06:32:40;;;;;;;20.25;11.18;;;;;;;-0.71;74.45;94405.63;4879029;29;20215;-78
2021/01/28 06:35:25;;;;;;;15.55;10.52;;;;;;;-0.67;73.85;94410.53;4879007;29;20704;-78
2021/01/28 06:38:11;;;;;;;15.20;8.90;;;;;;;-0.60;73.05;94408.50;4878382;29;20200;-78
2021/01/28 06:40:47;;;;;;;23.35;12.50;;;;;;;-0.59;73.21;94393.88;4878816;29;20212;-77
2021/01/28 06:43:20;;;;;;;30.67;13.25;;;;;;;-0.51;72.54;94396.91;4878608;29;20264;-81
2021/01/28 06:45:56;;;;;;;16.90;10.90;;;;;;;-0.37;72.27;94407.34;4890989;29;20284;-78
2021/01/28 06:48:28;;;;;;;15.02;10.60;;;;;;;-0.44;70.87;94395.69;4915733;29;20246;-77
2021/01/28 06:51:03;;;;;;;16.65;8.95;;;;;;;-0.33;71.18;94396.81;4915699;29;20219;-77
2021/01/28 06:53:43;;;;;;;15.35;9.40;;;;;;;-0.21;70.80;94399.69;4884776;29;20557;-78
2021/01/28 06:56:17;;;;;;;17.02;9.43;;;;;;;-0.10;70.56;94395.63;4915722;29;20703;-77
2021/01/28 06:58:55;;;;;;;24.85;11.75;;;;;;;0.04;69.57;94394.94;4971537;28;20212;-77
2021/01/28 07:01:31;;;;;;;15.20;9.00;;;;;;;0.13;68.68;94409.09;4987856;28;20207;-78
2021/01/28 07:04:13;;;;;;;12.05;8.48;;;;;;;0.24;68.41;94406.78;5048476;28;20229;-77
2021/01/28 07:06:46;;;;;;;10.68;7.80;;;;;;;0.37;67.70;94407.81;5073828;28;20226;-78
2021/01/28 07:09:29;;;;;;;6.00;5.30;;;;;;;0.45;66.65;94410.81;5074466;28;20225;-81
2021/01/28 07:11:59;;;;;;;9.50;7.35;;;;;;;0.51;68.28;94419.97;5073257;28;20205;-77
2021/01/28 07:14:25;;;;;;;7.10;6.38;;;;;;;0.57;66.80;94429.97;5073641;28;20232;-77
2021/01/28 07:16:59;;;;;;;9.80;6.57;;;;;;;0.57;66.59;94423.06;5073993;28;20198;-77
2021/01/28 07:19:28;;;;;;;10.90;7.70;;;;;;;0.47;66.45;94423.63;5073531;28;20206;-77
2021/01/28 07:21:57;;;;;;;12.77;7.40;;;;;;;0.35;66.77;94426.88;5073797;28;20286;-82
2021/01/28 07:24:31;;;;;;;9.18;7.57;;;;;;;0.27;67.75;94424.69;5073931;28;20558;-78
2021/01/28 07:26:59;;;;;;;9.75;6.80;;;;;;;0.28;68.04;94418.59;5074491;28;20261;-77
2021/01/28 07:29:50;;;;;;;7.45;6.25;;;;;;;0.24;68.37;94430.00;5074217;28;20206;-77
2021/01/28 07:33:04;;;;;;;14.10;8.32;;;;;;;0.33;67.79;94431.28;5074123;28;20202;-77
2021/01/28 07:35:49;;;;;;;11.43;8.38;;;;;;;0.43;67.41;94435.88;4992008;28;20218;-78
2021/01/28 07:38:41;;;;;;;12.43;8.15;;;;;;;0.54;67.47;94437.88;5009121;28;20302;-77
2021/01/28 07:41:23;;;;;;;15.73;8.00;;;;;;;0.66;67.64;94438.97;5011660;28;20207;-77
2021/01/28 07:43:52;;;;;;;7.35;6.38;;;;;;;0.66;66.79;94436.41;5011792;28;20215;-77
2021/01/28 07:46:34;;;;;;;10.48;6.93;;;;;;;0.72;66.06;94433.47;5011746;28;20220;-78
2021/01/28 07:49:11;;;;;;;6.22;5.07;;;;;;;0.69;65.08;94438.81;5011716;28;20192;-78
2021/01/28 07:51:39;;;;;;;9.35;5.57;;;;;;;0.77;68.96;94432.31;4962582;28;20203;-78
2021/01/28 07:54:36;;;;;;;7.72;5.75;;;;;;;1.98;73.03;94428.88;5011420;28;20635;-79
2021/01/28 07:57:06;;;;;;;7.88;6.03;;;;;;;1.94;68.86;94432.56;5011289;28;20225;-78
2021/01/28 07:59:36;;;;;;;6.80;6.10;;;;;;;1.62;62.64;94425.84;5011679;28;20212;-78
2021/01/28 08:02:19;;;;;;;12.23;8.90;;;;;;;1.51;62.91;94434.25;5011715;28;20652;-78
2021/01/28 08:04:48;;;;;;;12.25;9.57;;;;;;;1.47;63.03;94440.50;5011731;28;20649;-78
2021/01/28 08:07:21;;;;;;;12.60;8.68;;;;;;;1.35;63.17;94433.44;5082227;28;20205;-78
2021/01/28 08:09:49;;;;;;;6.82;6.13;;;;;;;1.19;63.31;94433.47;5093541;28;20227;-78
2021/01/28 08:12:23;;;;;;;11.75;7.97;;;;;;;1.11;64.05;94433.03;5093165;28;20207;-78
2021/01/28 08:14:52;;;;;;;9.60;7.78;;;;;;;0.99;66.89;94447.47;5093653;28;20309;-78
2021/01/28 08:17:27;;;;;;;7.50;5.75;;;;;;;0.99;64.90;94436.31;5092547;28;20231;-78
2021/01/28 08:20:13;;;;;;;11.60;7.95;;;;;;;1.03;65.37;94438.63;5093148;28;20208;-78
2021/01/28 08:22:50;;;;;;;8.13;5.85;;;;;;;1.07;66.39;94447.88;5092373;28;20212;-78
2021/01/28 08:25:16;;;;;;;10.13;6.90;;;;;;;1.10;65.23;94439.13;5057528;28;20208;-78
2021/01/28 08:27:43;;;;;;;11.68;7.57;;;;;;;1.11;64.81;94451.97;5076889;28;20211;-79
2021/01/28 08:30:15;;;;;;;13.52;7.80;;;;;;;1.28;65.21;94445.88;5077106;28;20676;-79
2021/01/28 08:32:43;;;;;;;9.75;7.65;;;;;;;1.37;65.63;94441.94;5077354;28;20214;-78
2021/01/28 08:35:16;;;;;;;14.07;10.15;;;;;;;1.53;65.74;94440.97;5077651;28;20202;-78
2021/01/28 08:37:42;;;;;;;12.93;9.07;;;;;;;1.60;64.43;94443.22;5077056;28;20195;-79
2021/01/28 08:40:17;;;;;;;20.40;12.43;;;;;;;1.77;64.81;94443.09;5077133;28;20237;-78
2021/01/28 08:42:44;;;;;;;30.98;14.65;;;;;;;1.82;64.76;94447.06;5076821;28;20190;-78
2021/01/28 08:45:17;;;;;;;24.92;13.48;;;;;;;1.93;64.48;94453.38;5077235;28;20213;-79
2021/01/28 08:47:55;;;;;;;13.20;9.27;;;;;;;1.86;63.76;94443.38;5076514;28;20234;-78
2021/01/28 08:50:26;;;;;;;9.20;7.13;;;;;;;1.91;64.01;94455.22;5076176;28;20203;-79
2021/01/28 08:52:59;;;;;;;10.18;8.00;;;;;;;1.98;63.48;94459.09;5076271;28;20266;-79
2021/01/28 08:55:27;;;;;;;7.97;5.95;;;;;;;1.94;63.09;94453.28;5076730;28;20186;-79
2021/01/28 08:58:03;;;;;;;10.90;7.50;;;;;;;1.88;63.09;94457.97;5076528;28;20251;-79
2021/01/28 09:00:29;;;;;;;9.52;7.03;;;;;;;1.94;64.48;94452.44;5076672;28;20443;-79
2021/01/28 09:02:57;;;;;;;8.40;7.20;;;;;;;2.21;64.40;94468.94;5076451;28;20212;-79
2021/01/28 09:05:26;;;;;;;7.55;6.05;;;;;;;2.29;62.41;94463.31;5077065;28;20190;-79
2021/01/28 09:07:54;;;;;;;12.88;6.03;;;;;;;2.32;62.06;94461.38;5076683;28;20230;-80
2021/01/28 09:10:40;;;;;;;8.02;5.95;;;;;;;2.38;61.73;94465.38;5076190;28;20202;-79
2021/01/28 09:13:17;;;;;;;10.60;4.90;;;;;;;2.41;61.39;94468.59;5041140;28;20232;-79
2021/01/28 09:15:44;;;;;;;5.90;4.90;;;;;;;2.49;61.72;94465.53;5076161;28;20653;-79
2021/01/28 09:18:26;;;;;;;11.45;7.57;;;;;;;2.50;62.35;94459.44;5075727;28;20449;-80
2021/01/28 09:20:53;;;;;;;12.50;6.77;;;;;;;2.41;62.12;94463.41;5075874;28;20192;-79
2021/01/28 09:23:20;;;;;;;5.72;4.10;;;;;;;2.32;62.25;94469.16;5024573;28;20443;-79
2021/01/28 09:26:07;;;;;;;7.10;6.10;;;;;;;2.17;62.59;94454.53;5076197;28;20202;-79
2021/01/28 09:28:35;;;;;;;6.95;5.78;;;;;;;1.96;63.34;94460.94;5076293;28;20198;-79
2021/01/28 09:31:20;;;;;;;10.75;6.47;;;;;;;1.80;64.20;94464.44;5076183;28;20190;-79
2021/01/28 09:33:46;;;;;;;11.23;5.55;;;;;;;1.67;63.96;94470.38;5075529;28;20302;-79
2021/01/28 09:36:18;;;;;;;7.95;5.88;;;;;;;1.82;64.14;94460.00;5076452;28;20202;-79
2021/01/28 09:39:00;;;;;;;10.65;5.95;;;;;;;1.98;63.58;94466.88;5078661;28;20221;-79
2021/01/28 09:41:31;;;;;;;7.70;5.32;;;;;;;1.87;64.46;94470.09;5077667;28;20565;-79
2021/01/28 09:43:58;;;;;;;5.95;4.55;;;;;;;1.54;64.48;94470.25;5079299;28;20586;-78
2021/01/28 09:46:30;;;;;;;11.88;6.00;;;;;;;1.47;64.76;94474.13;5076713;28;20205;-78
2021/01/28 09:48:59;;;;;;;8.07;6.72;;;;;;;1.54;66.05;94468.50;5076387;28;20673;-79
2021/01/28 09:51:32;;;;;;;6.35;5.75;;;;;;;1.59;65.87;94464.81;5077048;28;20572;-78
2021/01/28 09:54:09;;;;;;;9.57;6.75;;;;;;;1.58;66.75;94464.00;5076034;28;20214;-79
2021/01/28 09:56:35;;;;;;;5.43;4.90;;;;;;;1.62;68.61;94462.88;5076459;28;20228;-79
2021/01/28 09:59:03;;;;;;;7.95;6.05;;;;;;;1.62;66.19;94468.06;5033964;28;20733;-79
2021/01/28 10:01:29;;;;;;;6.00;5.40;;;;;;;1.56;66.19;94460.66;5033668;28;20596;-79
2021/01/28 10:03:56;;;;;;;8.10;5.13;;;;;;;1.64;65.12;94471.41;5034500;28;20211;-79
2021/01/28 10:06:22;;;;;;;13.23;8.05;;;;;;;1.79;65.32;94478.28;5034638;28;20214;-79
2021/01/28 10:08:49;;;;;;;26.58;12.00;;;;;;;1.70;64.51;94468.44;5034498;28;20676;-78
2021/01/28 10:11:16;;;;;;;14.95;9.30;;;;;;;1.60;65.11;94469.06;5033328;28;20203;-79
2021/01/28 10:13:43;;;;;;;10.00;7.10;;;;;;;1.48;65.23;94455.09;5033349;28;20327;-79
2021/01/28 10:16:10;;;;;;;8.95;6.20;;;;;;;1.31;64.74;94450.88;5038316;28;20334;-78
2021/01/28 10:18:37;;;;;;;6.30;5.13;;;;;;;1.24;65.22;94452.97;5023694;28;20206;-79
2021/01/28 10:21:05;;;;;;;9.40;6.25;;;;;;;1.31;66.02;94453.44;5075854;28;20641;-78
2021/01/28 10:23:32;;;;;;;7.88;6.80;;;;;;;1.44;66.59;94448.41;5075570;28;20210;-79
2021/01/28 10:25:58;;;;;;;9.77;6.90;;;;;;;1.57;65.83;94451.97;5076988;28;20284;-79
2021/01/28 10:28:24;;;;;;;12.43;8.15;;;;;;;1.65;65.92;94448.94;5075206;28;20246;-79
2021/01/28 10:30:51;;;;;;;13.27;8.00;;;;;;;1.77;66.07;94462.03;5056008;28;20213;-79
2021/01/28 10:33:19;;;;;;;14.43;8.00;;;;;;;1.83;66.33;94440.97;5074145;28;20698;-79
2021/01/28 10:35:46;;;;;;;11.18;7.70;;;;;;;2.05;66.27;94457.84;5073825;28;20205;-79
2021/01/28 10:38:12;;;;;;;14.77;7.53;;;;;;;2.19;nan;94447.50;5074551;28;20229;-79
2021/01/28 10:40:39;;;;;;;7.90;6.53;;;;;;;2.28;64.92;94449.53;5075487;28;20607;-80
2021/01/28 10:43:07;;;;;;;11.60;7.68;;;;;;;2.39;65.03;94457.50;5076710;28;20206;-79
2021/01/28 10:45:36;;;;;;;11.50;6.45;;;;;;;2.53;64.87;94459.25;5075907;28;20628;-78
2021/01/28 10:48:03;;;;;;;8.87;6.77;;;;;;;2.69;65.76;94457.41;5074719;28;20202;-79
2021/01/28 10:50:32;;;;;;;15.00;8.15;;;;;;;2.62;64.07;94463.06;5075222;28;20433;-79
2021/01/28 10:52:59;;;;;;;32.58;14.27;;;;;;;2.66;64.36;94460.19;5075996;28;20217;-79
2021/01/28 10:55:27;;;;;;;7.80;6.80;;;;;;;2.63;64.34;94454.38;5079528;28;20192;-80
2021/01/28 10:57:56;;;;;;;8.63;6.47;;;;;;;2.61;65.85;94443.25;5076515;28;20453;-79
2021/01/28 11:00:24;;;;;;;11.73;7.72;;;;;;;2.84;66.14;94455.63;5075588;28;20518;-79
2021/01/28 11:02:50;;;;;;;9.75;7.65;;;;;;;2.99;67.64;94452.09;5075154;28;20260;-79
2021/01/28 11:05:19;;;;;;;7.97;5.60;;;;;;;2.89;63.54;94445.81;5076658;28;20654;-78
2021/01/28 11:07:46;;;;;;;6.32;5.72;;;;;;;2.77;64.29;94451.75;5077981;28;20405;-78
2021/01/28 11:10:14;;;;;;;6.47;5.73;;;;;;;2.57;65.06;94442.59;5082360;28;20198;-78
2021/01/28 11:12:41;;;;;;;6.55;5.80;;;;;;;2.52;64.68;94436.88;5086944;28;20474;-79
2021/01/28 11:15:09;;;;;;;19.75;9.13;;;;;;;2.29;63.92;94422.72;5088070;28;20198;-78
2021/01/28 11:17:36;;;;;;;13.40;8.18;;;;;;;2.32;65.75;94438.09;5083946;28;20205;-78
2021/01/28 11:20:03;;;;;;;12.73;8.47;;;;;;;2.36;65.80;94436.97;5086598;28;20210;-76
2021/01/28 11:22:29;;;;;;;7.38;6.07;;;;;;;2.28;66.50;94439.16;5085584;28;20448;-79
2021/01/28 11:24:57;;;;;;;12.43;8.48;;;;;;;2.28;66.39;94423.63;5085746;28;20280;-79
2021/01/28 11:27:23;;;;;;;10.60;7.07;;;;;;;2.36;66.83;94433.56;5085555;28;20204;-77
2021/01/28 11:29:51;;;;;;;12.90;11.05;;;;;;;2.38;66.45;94429.94;5088361;28;20537;-79
2021/01/28 11:32:17;;;;;;;10.38;7.88;;;;;;;2.27;66.08;94434.91;5084942;28;20202;-79
2021/01/28 11:34:43;;;;;;;16.55;11.70;;;;;;;2.17;67.62;94434.66;5084762;28;20665;-78
2021/01/28 11:37:10;;;;;;;13.55;9.02;;;;;;;2.07;68.02;94432.72;5065902;28;20205;-79
2021/01/28 11:39:36;;;;;;;14.82;8.90;;;;;;;2.10;68.70;94432.53;5085096;28;20237;-79
2021/01/28 11:42:05;;;;;;;13.68;10.65;;;;;;;2.17;67.90;94431.22;5086995;28;20238;-78
2021/01/28 11:44:32;;;;;;;15.00;9.00;;;;;;;2.07;67.83;94430.94;5086073;28;20255;-79
2021/01/28 11:46:59;;;;;;;17.23;10.02;;;;;;;2.05;67.08;94440.56;5082330;28;20709;-79